Washburn, WI (54891)

1:06 AM CST on February 08, 2016 (GMT -0600)
City of Washburn | | Change Station
CLOSE
Current Station
Personal Weather Station
Location: Washburn, WI
Elevation: 735 ft
Nearby Weather Stations
Active Advisory: Winter Weather Advisory Active Notice: Public Information Statement

Elev 735 ft 46.68 °N, 90.90 °W | Updated 4 minutes ago

Snow
Snow
26.2 °F
Feels Like 20 °F
N
5.3
Wind Variable Wind from West

Today
High -- | Low -- °F
--% Chance of Precip.
Yesterday
High -- | Low -- °F
Precip. -- in
Pressure 29.64 in
Visibility 2.0 miles
Clouds Overcast 1400 ft
Windchill 20 °F
Dew Point 24 °F
Humidity 92%
Rainfall 0.00 in
Snow Depth Not available.
7:18 AM 5:17 PM
Waning Crescent, 0% visible
SPECI KASX 080658Z AUTO 34010KT 2SM -SN BR OVC014 M03/M04 A2964 RMK AO2 P0000 T10331044
Pressure 29.64 in
Visibility 2.0 miles
Clouds Overcast 1400 ft
Windchill 20 °F
Dew Point 24 °F
Humidity 92%
Rainfall 0.00 in
Snow Depth Not available.
7:18 AM 5:17 PM
Waning Crescent, 0% visible
SPECI KASX 080658Z AUTO 34010KT 2SM -SN BR OVC014 M03/M04 A2964 RMK AO2 P0000 T10331044

10-Day Weather Forecast

Almanac

Astronomy

Feb. 08, 2016 Rise Set
Actual Time
Civil Twilight
Nautical Twilight
Astronomical Twilight
Moon
Length of Visible Light
Length of Day
Tomorrow will be .
, % of the Moon is Illuminated

Today's Extremes

State Highs State Lows

Community

WunderPhotos

Upload Photos

1,891,394 photos uploaded!

WunderBlog® & News

Nearby

Air Quality

  Air Quality AQ Index Pollutant
Not available.

Snow Depth

Station Depth Elevation

Earthquake Activity

City Distance Mag. Time & Date
Minimum magnitude displayed is 2.5.

Coastal Water Temperatures

Place Temperature

Stations

Nearby Weather Stations

Station Location Temp. Windchill Dew Point Humidity Wind Precip. Elev Updated Type
                   

Watches & Warnings

Winter Weather Advisory
Issued: 10:56 PM CST Feb. 7, 2016 – National Weather Service

... Winter Weather Advisory remains in effect until midnight CST
Monday night...

* locations... Superior... Foxboro... South Range.

* Snow accumulations... 1 to 3 inches overnight. Additional
snowfall is expected Monday and Monday evening.

* Winds... northwest 15 to 25 mph with gusts up to 30 mph.

* Visibilities... reduced to less than one mile at times with
snow and blowing snow.

Precautionary/preparedness actions...

A Winter Weather Advisory for snow and blowing snow means that
visibilities will be limited due to a combination of falling and
blowing snow. Use caution when traveling... especially in open
areas that are more exposed to the wind. Roads may be slick and
hazardous... so allow extra time to reach your destination.